SVFLIR Weather Reports


Display with metric or nautical units.
time (UTC)temp
F
wind
direction
speed
MPH
gust
MPH
rain 1hr
in
rain 24hr
in
rain mn
in
humidity
%
barometer
mb
20181217043719 43 251 3.0 4.0 0.00 0.00 0.00
20181217043219 43 251 3.0 3.0 0.00 0.00 0.00
20181217042718 42 251 2.0 3.0 0.00 0.00 0.00
20181217042216 42 253 2.0 2.0 0.00 0.00 0.00
20181217041715 37 253 2.0 7.0 0.00 0.00 0.00
20181217041215 39 251 2.0 4.0 0.00 0.00 0.00
20181217040213 39 251 2.0 3.0 0.00 0.00 0.00
20181217035711 40 254 2.0 2.0 0.00 0.00 0.00
20181217035211 39 253 2.0 3.0 0.00 0.00 0.00
20181217034711 40 251 3.0 3.0 0.00 0.00 0.00
20181217034209 41 251 2.0 4.0 0.00 0.00 0.00
20181217033206 45 324 1.0 4.0 0.00 0.00 0.00
20181217032706 42 345 3.0 2.0 0.00 0.00 0.00
20181217032205 41 336 0.0 0.0 0.00 0.00 0.00
20181217031704 39 336 0.0 0.0 0.00 0.00 0.00
20181217031203 43 336 0.0 0.0 0.00 0.00 0.00
20181217030702 44 336 0.0 0.0 0.00 0.00 0.00
20181217030201 44 336 0.0 0.0 0.00 0.00 0.00
20181217025700 44 336 0.0 0.0 0.00 0.00 0.00
20181217025159 45 336 0.0 0.0 0.00 0.00 0.00
20181217024658 46 336 0.0 0.0 0.00 0.00 0.00
20181217024157 48 336 0.0 0.0 0.00 0.00 0.00
20181217023656 47 336 0.0 0.0 0.00 0.00 0.00
20181217023155 47 336 0.0 0.0 0.00 0.00 0.00
20181217022654 49 336 0.0 5.0 0.00 0.00 0.00
20181217022153 48 336 0.0 5.0 0.00 0.00 0.00
20181217021652 50 340 5.0 0.0 0.00 0.00 0.00
20181217021151 50 161 0.0 0.0 0.00 0.00 0.00
20181217020650 49 161 0.0 2.0 0.00 0.00 0.00
20181217020149 51 161 0.0 0.0 0.00 0.00 0.00
20181217015648 52 196 0.0 0.0 0.00 0.00 0.00
20181217015147 51 196 0.0 0.0 0.00 0.00 0.00
20181217014646 51 196 0.0 0.0 0.00 0.00 0.00
20181217014145 52 196 0.0 0.0 0.00 0.00 0.00
20181217013644 52 196 0.0 0.0 0.00 0.00 0.00
20181217013143 53 196 0.0 0.0 0.00 0.00 0.00
20181217012642 54 196 0.0 0.0 0.00 0.00 0.00
20181217012141 53 196 0.0 0.0 0.00 0.00 0.00
20181217011640 54 196 0.0 0.0 0.00 0.00 0.00
20181217011139 54 196 0.0 0.0 0.00 0.00 0.00
20181217010639 53 196 0.0 0.0 0.00 0.00 0.00
20181217010137 53 196 0.0 0.0 0.00 0.00 0.00
20181217005636 53 196 0.0 0.0 0.00 0.00 0.00
20181217005135 54 196 0.0 0.0 0.00 0.00 0.00
20181217004634 56 196 0.0 0.0 0.00 0.00 0.00
20181217004134 58 196 0.0 0.0 0.00 0.00 0.00
20181217003632 50 196 0.0 0.0 0.00 0.00 0.00
20181217003131 53 196 0.0 0.0 0.00 0.00 0.00
20181217002630 50 196 0.0 0.0 0.00 0.00 0.00
20181217002130 54 196 0.0 0.0 0.00 0.00 0.00
20181217001628 55 196 0.0 0.0 0.00 0.00 0.00
20181217001126 53 196 0.0 0.0 0.00 0.00 0.00
20181217000625 56 196 0.0 1.0 0.00 0.00 0.00
20181217000124 54 196 0.0 0.0 0.00 0.00 0.00
20181216235624 58 196 0.0 0.0 0.00 0.00 0.00
20181216235123 57 196 0.0 0.0 0.00 0.00 0.00
20181216234621 57 196 0.0 0.0 0.00 0.00 0.00
20181216234120 58 196 0.0 0.0 0.00 0.00 0.00
20181216233620 60 196 0.0 0.0 0.00 0.00 0.00
20181216233119 61 196 0.0 0.0 0.00 0.00 0.00
20181216232618 61 196 0.0 0.0 0.00 0.00 0.00
20181216232116 61 196 0.0 0.0 0.00 0.00 0.00
20181216231615 60 196 0.0 0.0 0.00 0.00 0.00
20181216231115 60 196 0.0 0.0 0.00 0.00 0.00
20181216230614 60 196 0.0 0.0 0.00 0.00 0.00
20181216230113 61 196 0.0 0.0 0.00 0.00 0.00
20181216225111 61 196 0.0 0.0 0.00 0.00 0.00
20181216224610 61 196 0.0 0.0 0.00 0.00 0.00
20181216224109 61 196 0.0 0.0 0.00 0.00 0.00
20181216223608 62 196 0.0 0.0 0.00 0.00 0.00
20181216223107 62 196 0.0 2.0 0.00 0.00 0.00
20181216222606 62 196 0.0 4.0 0.00 0.00 0.00
20181216222105 61 177 0.0 4.0 0.00 0.00 0.00
20181216221604 61 202 1.0 4.0 0.00 0.00 0.00
20181216221103 62 206 2.0 4.0 0.00 0.00 0.00
20181216220602 62 209 1.0 3.0 0.00 0.00 0.00
20181216220101 62 205 2.0 3.0 0.00 0.00 0.00
20181216215600 62 205 0.0 2.0 0.00 0.00 0.00
20181216215059 61 156 0.0 3.0 0.00 0.00 0.00
20181216214558 60 199 1.0 5.0 0.00 0.00 0.00
20181216214057 61 191 0.0 5.0 0.00 0.00 0.00
20181216213556 62 192 3.0 5.0 0.00 0.00 0.00
20181216213055 63 188 4.0 6.0 0.00 0.00 0.00
20181216212554 63 199 3.0 8.0 0.00 0.00 0.00
20181216212053 64 230 5.0 8.0 0.00 0.00 0.00
20181216211552 62 192 5.0 8.0 0.00 0.00 0.00
20181216211051 63 171 6.0 8.0 0.00 0.00 0.00
20181216210550 61 163 5.0 9.0 0.00 0.00 0.00
20181216210049 63 184 7.0 12.0 0.00 0.00 0.00
20181216205548 63 180 9.0 10.0 0.00 0.00 0.00
20181216205047 64 168 7.0 12.0 0.00 0.00 0.00
20181216204546 61 188 10.0 10.0 0.00 0.00 0.00
20181216204045 64 147 10.0 12.0 0.00 0.00 0.00
20181216203544 64 101 10.0 10.0 0.00 0.00 0.00
20181216203043 64 115 8.0 14.0 0.00 0.00 0.00
20181216202542 64 102 6.0 11.0 0.00 0.00 0.00
20181216202041 64 113 8.0 12.0 0.00 0.00 0.00
20181216201540 66 82 7.0 11.0 0.00 0.00 0.00
20181216201039 65 85 9.0 9.0 0.00 0.00 0.00
20181216200538 65 104 6.0 10.0 0.00 0.00 0.00
20181216200037 65 61 8.0 8.0 0.00 0.00 0.00
20181216195536 63 119 3.0 7.0 0.00 0.00 0.00
20181216195035 62 105 4.0 4.0 0.00 0.00 0.00
20181216194534 63 143 4.0 5.0 0.00 0.00 0.00
20181216194034 62 84 0.0 4.0 0.00 0.00 0.00
20181216193532 60 151 2.0 5.0 0.00 0.00 0.00
20181216193031 59 137 2.0 7.0 0.00 0.00 0.00
20181216192530 60 158 6.0 8.0 0.00 0.00 0.00
20181216192030 62 146 5.0 9.0 0.00 0.00 0.00
20181216191529 62 160 3.0 9.0 0.00 0.00 0.00
20181216191027 62 146 9.0 10.0 0.00 0.00 0.00
20181216190526 59 154 7.0 9.0 0.00 0.00 0.00
20181216190025 62 146 9.0 7.0 0.00 0.00 0.00
20181216185525 61 165 2.0 7.0 0.00 0.00 0.00
20181216185024 60 154 7.0 8.0 0.00 0.00 0.00
20181216184522 60 180 6.0 9.0 0.00 0.00 0.00
20181216184021 58 184 8.0 10.0 0.00 0.00 0.00
20181216183521 59 182 6.0 11.0 0.00 0.00 0.00
20181216183020 58 187 8.0 12.0 0.00 0.00 0.00
20181216182519 57 165 9.0 13.0 0.00 0.00 0.00
20181216182017 58 160 9.0 14.0 0.00 0.00 0.00
20181216181516 58 180 11.0 16.0 0.00 0.00 0.00
20181216181016 61 158 8.0 14.0 0.00 0.00 0.00
20181216180013 62 187 7.0 11.0 0.00 0.00 0.00
20181216175511 61 195 8.0 11.0 0.00 0.00 0.00
20181216175011 63 185 8.0 12.0 0.00 0.00 0.00
20181216174510 64 178 8.0 13.0 0.00 0.00 0.00
20181216174009 60 143 8.0 12.0 0.00 0.00 0.00
20181216173508 60 142 6.0 14.0 0.00 0.00 0.00
20181216173007 63 177 9.0 15.0 0.00 0.00 0.00
20181216172506 63 143 10.0 13.0 0.00 0.00 0.00
20181216172005 63 130 7.0 6.0 0.00 0.00 0.00
20181216171504 62 174 4.0 4.0 0.00 0.00 0.00
20181216171004 60 289 0.0 0.0 0.00 0.00 0.00
20181216170502 59 289 0.0 0.0 0.00 0.00 0.00
20181216170001 59 289 0.0 0.0 0.00 0.00 0.00
20181216165500 60 289 0.0 2.0 0.00 0.00 0.00
20181216164959 57 291 0.0 3.0 0.00 0.00 0.00
20181216164458 57 307 1.0 2.0 0.00 0.00 0.00
20181216163957 55 285 1.0 0.0 0.00 0.00 0.00
20181216163456 54 281 0.0 0.0 0.00 0.00 0.00
20181216162955 54 281 0.0 0.0 0.00 0.00 0.00
20181216161953 54 284 0.0 4.0 0.00 0.00 0.00
20181216161452 53 275 3.0 4.0 0.00 0.00 0.00
20181216160951 52 296 3.0 4.0 0.00 0.00 0.00
20181216160450 50 320 3.0 4.0 0.00 0.00 0.00
20181216155949 50 323 4.0 4.0 0.00 0.00 0.00
20181216155448 50 292 3.0 5.0 0.00 0.00 0.00
20181216154947 48 306 3.0 4.0 0.00 0.00 0.00
20181216154446 47 338 3.0 3.0 0.00 0.00 0.00
20181216153945 46 323 2.0 1.0 0.00 0.00 0.00
20181216153444 45 291 0.0 2.0 0.00 0.00 0.00
20181216152943 43 298 1.0 3.0 0.00 0.00 0.00
20181216152442 44 330 2.0 4.0 0.00 0.00 0.00
20181216151941 43 306 4.0 7.0 0.00 0.00 0.00
20181216151440 42 275 3.0 8.0 0.00 0.00 0.00
20181216150939 41 251 7.0 6.0 0.00 0.00 0.00
20181216150438 41 251 4.0 6.0 0.00 0.00 0.00
20181216145937 41 251 5.0 5.0 0.00 0.00 0.00
20181216145436 41 251 4.0 5.0 0.00 0.00 0.00
20181216144935 40 251 5.0 4.0 0.00 0.00 0.00
20181216144434 40 251 4.0 4.0 0.00 0.00 0.00
20181216143934 41 251 3.0 5.0 0.00 0.00 0.00
20181216143432 39 251 4.0 3.0 0.00 0.00 0.00
20181216142931 38 251 3.0 6.0 0.00 0.00 0.00
20181216142430 39 251 3.0 8.0 0.00 0.00 0.00
20181216141930 38 251 7.0 7.0 0.00 0.00 0.00
20181216141429 38 251 6.0 4.0 0.00 0.00 0.00
20181216140927 38 251 3.0 4.0 0.00 0.00 0.00
20181216140426 38 251 3.0 6.0 0.00 0.00 0.00
20181216135925 38 251 4.0 6.0 0.00 0.00 0.00
20181216135425 38 251 5.0 6.0 0.00 0.00 0.00
20181216134422 37 251 6.0 18.0 0.00 0.00 0.00
20181216133921 37 251 5.0 15.0 0.00 0.00 0.00
20181216133421 38 251 5.0 3.0 0.00 0.00 0.00
20181216132920 36 253 1.0 10.0 0.00 0.00 0.00
20181216132419 37 251 3.0 8.0 0.00 0.00 0.00
20181216131917 39 253 0.0 5.0 0.00 0.00 0.00
20181216131417 40 251 0.0 7.0 0.00 0.00 0.00
20181216130916 40 251 0.0 15.0 0.00 0.00 0.00
20181216130415 41 251 5.0 5.0 0.00 0.00 0.00
20181216125914 41 251 2.0 6.0 0.00 0.00 0.00
20181216125412 41 251 1.0 3.0 0.00 0.00 0.00
20181216124410 43 253 1.0 4.0 0.00 0.00 0.00
20181216123909 43 251 3.0 5.0 0.00 0.00 0.00
20181216123408 43 251 4.0 5.0 0.00 0.00 0.00
20181216122907 42 251 4.0 5.0 0.00 0.00 0.00
20181216122406 43 251 4.0 4.0 0.00 0.00 0.00
20181216121404 44 251 4.0 6.0 0.00 0.00 0.00
20181216120903 44 251 6.0 5.0 0.00 0.00 0.00
20181216120402 39 251 4.0 3.0 0.00 0.00 0.00
20181216115901 38 251 2.0 2.0 0.00 0.00 0.00
20181216115400 35 253 0.0 0.0 0.00 0.00 0.00
20181216114859 35 253 0.0 0.0 0.00 0.00 0.00
20181216114358 38 253 0.0 7.0 0.00 0.00 0.00
20181216113857 38 251 3.0 3.0 0.00 0.00 0.00
20181216113356 39 251 2.0 6.0 0.00 0.00 0.00
20181216112855 39 251 5.0 6.0 0.00 0.00 0.00
20181216112354 40 251 5.0 7.0 0.00 0.00 0.00
20181216111853 40 251 6.0 7.0 0.00 0.00 0.00
20181216111352 39 251 5.0 5.0 0.00 0.00 0.00
20181216110851 40 251 4.0 2.0 0.00 0.00 0.00
20181216110350 41 254 2.0 9.0 0.00 0.00 0.00
20181216105849 38 251 2.0 10.0 0.00 0.00 0.00
20181216105348 35 251 4.0 6.0 0.00 0.00 0.00
20181216104848 35 251 5.0 4.0 0.00 0.00 0.00
20181216104346 35 251 3.0 4.0 0.00 0.00 0.00
20181216103845 35 251 4.0 2.0 0.00 0.00 0.00
20181216103344 36 251 0.0 3.0 0.00 0.00 0.00
20181216102843 37 251 0.0 4.0 0.00 0.00 0.00
20181216102342 35 251 0.0 7.0 0.00 0.00 0.00
20181216101841 35 251 2.0 5.0 0.00 0.00 0.00
20181216101340 34 250 4.0 5.0 0.00 0.00 0.00
20181216100839 35 250 4.0 3.0 0.00 0.00 0.00
20181216100339 38 250 2.0 2.0 0.00 0.00 0.00
20181216095837 40 250 0.0 4.0 0.00 0.00 0.00
20181216095336 38 250 3.0 6.0 0.00 0.00 0.00
20181216094835 39 250 6.0 6.0 0.00 0.00 0.00
20181216094334 37 250 5.0 4.0 0.00 0.00 0.00
20181216093834 36 250 1.0 3.0 0.00 0.00 0.00
20181216093332 38 250 0.0 3.0 0.00 0.00 0.00
20181216092831 39 251 0.0 4.0 0.00 0.00 0.00
20181216092330 38 254 1.0 6.0 0.00 0.00 0.00
20181216091830 38 250 3.0 5.0 0.00 0.00 0.00
20181216091329 38 253 2.0 5.0 0.00 0.00 0.00
20181216090827 40 251 1.0 0.0 0.00 0.00 0.00
20181216090326 41 250 0.0 0.0 0.00 0.00 0.00
20181216085826 41 250 0.0 3.0 0.00 0.00 0.00
20181216085325 42 250 1.0 4.0 0.00 0.00 0.00
20181216084824 42 251 3.0 4.0 0.00 0.00 0.00
20181216084322 42 251 4.0 8.0 0.00 0.00 0.00
20181216083822 41 251 5.0 9.0 0.00 0.00 0.00
20181216083321 41 251 5.0 6.0 0.00 0.00 0.00
20181216082820 41 251 5.0 6.0 0.00 0.00 0.00
20181216082319 42 251 6.0 6.0 0.00 0.00 0.00
20181216081817 42 251 5.0 5.0 0.00 0.00 0.00
20181216081317 41 251 5.0 6.0 0.00 0.00 0.00
20181216080816 42 251 4.0 7.0 0.00 0.00 0.00
20181216080315 41 251 4.0 5.0 0.00 0.00 0.00
20181216075814 41 251 4.0 5.0 0.00 0.00 0.00
20181216075313 41 251 3.0 5.0 0.00 0.00 0.00
20181216074812 42 251 5.0 6.0 0.00 0.00 0.00
20181216074311 42 251 5.0 7.0 0.00 0.00 0.00
20181216073810 42 251 7.0 7.0 0.00 0.00 0.00
20181216073309 42 251 6.0 5.0 0.00 0.00 0.00
20181216072808 42 251 4.0 5.0 0.00 0.00 0.00
20181216072307 43 251 4.0 6.0 0.00 0.00 0.00
20181216071806 42 251 5.0 5.0 0.00 0.00 0.00
20181216071305 42 251 4.0 6.0 0.00 0.00 0.00
20181216070804 42 251 5.0 6.0 0.00 0.00 0.00
20181216070303 41 253 2.0 3.0 0.00 0.00 0.00
20181216065802 41 251 2.0 5.0 0.00 0.00 0.00
20181216065301 41 251 0.0 2.0 0.00 0.00 0.00
20181216064800 42 251 2.0 5.0 0.00 0.00 0.00
20181216064259 41 251 1.0 3.0 0.00 0.00 0.00
20181216063758 41 251 3.0 4.0 0.00 0.00 0.00
20181216063257 41 251 4.0 5.0 0.00 0.00 0.00
20181216062756 42 251 4.0 5.0 0.00 0.00 0.00
20181216062255 42 251 4.0 5.0 0.00 0.00 0.00
20181216061754 42 251 5.0 6.0 0.00 0.00 0.00
20181216061253 38 251 5.0 8.0 0.00 0.00 0.00
20181216060752 41 251 4.0 4.0 0.00 0.00 0.00
20181216060251 34 253 2.0 5.0 0.00 0.00 0.00
20181216055750 39 37 2.0 4.0 0.00 0.00 0.00
20181216055249 41 250 4.0 2.0 0.00 0.00 0.00
20181216054748 43 251 0.0 3.0 0.00 0.00 0.00
20181216054247 43 251 3.0 5.0 0.00 0.00 0.00
20181216053746 43 251 5.0 6.0 0.00 0.00 0.00
20181216053245 43 251 5.0 6.0 0.00 0.00 0.00
20181216052745 43 251 5.0 5.0 0.00 0.00 0.00
20181216052243 43 251 4.0 5.0 0.00 0.00 0.00
20181216051742 44 251 5.0 6.0 0.00 0.00 0.00
20181216051241 44 251 5.0 7.0 0.00 0.00 0.00
20181216050740 45 251 7.0 7.0 0.00 0.00 0.00
20181216050240 45 251 6.0 8.0 0.00 0.00 0.00
20181216045738 45 251 4.0 4.0 0.00 0.00 0.00
20181216045237 40 251 3.0 3.0 0.00 0.00 0.00
20181216044236 36 251 2.0 6.0 0.00 0.00 0.00